Time;durP1;ratioP1;P1;durP2;ratioP2;P2;SDS_P1;SDS_P2;PMS_P1;PMS_P2;Temp;Humidity;BMP_temperature;BMP_pressure;BME280_temperature;BME280_humidity;BME280_pressure;Samples;Min_cycle;Max_cycle;Signal;HPM_P1;HPM_P2
2020/06/28 00:01:22;;;;;;;4.7;3.5;;;;;;;16.66;89.03223;940.0408;;;;
2020/06/28 00:03:47;;;;;;;5.8;3.4;;;;;;;16.52;89.39844;940.0154;;;;
2020/06/28 00:06:14;;;;;;;5.9;3.6;;;;;;;16.52;89.74609;940.0373;;;;
2020/06/28 00:08:39;;;;;;;5.6;3.9;;;;;;;16.4;90.19629;940.0028;;;;
2020/06/28 00:11:04;;;;;;;6.5;4;;;;;;;16.31;90.61719;939.9483;;;;
2020/06/28 00:13:29;;;;;;;5.9;4.3;;;;;;;16.25;91.02246;940.0147;;;;
2020/06/28 00:15:56;;;;;;;8.6;4.4;;;;;;;16.34;90.54199;939.9986;;;;
2020/06/28 00:18:21;;;;;;;7.6;4;;;;;;;16.27;90.83984;939.992;;;;
2020/06/28 00:20:46;;;;;;;5.7;4;;;;;;;16.35;90.47266;939.9608;;;;
2020/06/28 00:23:12;;;;;;;5.5;4;;;;;;;16.35;89.98633;939.9623;;;;
2020/06/28 00:25:37;;;;;;;4.8;3.7;;;;;;;16.39;90.03223;939.8808;;;;
2020/06/28 00:28:02;;;;;;;5.8;3.7;;;;;;;16.46;89.61914;939.9575;;;;
2020/06/28 00:30:27;;;;;;;4.8;3.8;;;;;;;16.42;89.32031;939.9595;;;;
2020/06/28 00:32:55;;;;;;;4.6;3.7;;;;;;;16.49;88.93945;939.9958;;;;
2020/06/28 00:35:20;;;;;;;6.6;3.6;;;;;;;16.25;89.75977;939.9255;;;;
2020/06/28 00:37:46;;;;;;;5.2;3.8;;;;;;;16.24;89.63086;939.9498;;;;
2020/06/28 00:40:11;;;;;;;5.4;3.6;;;;;;;16.29;89.73242;939.9613;;;;
2020/06/28 00:42:37;;;;;;;6.2;3.6;;;;;;;16.29;89.8252;939.8376;;;;
2020/06/28 00:45:02;;;;;;;5.9;3.6;;;;;;;16.3;89.62012;939.9258;;;;
2020/06/28 00:47:29;;;;;;;5.1;3.3;;;;;;;16.35;89.57422;939.8715;;;;
2020/06/28 00:49:54;;;;;;;6.1;3.4;;;;;;;16.38;89.44043;939.8616;;;;
2020/06/28 00:52:20;;;;;;;6.2;3.5;;;;;;;16.36;89.07617;939.8425;;;;
2020/06/28 00:54:45;;;;;;;4.8;3.5;;;;;;;16.33;89.19629;939.8356;;;;
2020/06/28 00:57:11;;;;;;;3.9;3.5;;;;;;;16.11;89.96387;939.8181;;;;
2020/06/28 00:59:36;;;;;;;6;3.5;;;;;;;16.04;90.31641;939.7385;;;;
2020/06/28 01:02:01;;;;;;;6.4;3.7;;;;;;;16.03;90.38574;939.7305;;;;
2020/06/28 01:04:27;;;;;;;5;3.5;;;;;;;16.02;90.10449;939.7475;;;;
2020/06/28 01:06:52;;;;;;;5.3;3.4;;;;;;;16;90.06641;939.7177;;;;
2020/06/28 01:09:18;;;;;;;3.9;2.9;;;;;;;15.75;91.21777;939.7139;;;;
2020/06/28 01:11:43;;;;;;;5.1;2.6;;;;;;;15.88;89.82227;939.6408;;;;
2020/06/28 01:14:10;;;;;;;4.7;2.9;;;;;;;16;89.61719;939.659;;;;
2020/06/28 01:16:35;;;;;;;6.7;3.4;;;;;;;15.98;89.92383;939.6359;;;;
2020/06/28 01:19:03;;;;;;;4.8;3.3;;;;;;;15.99;89.72949;939.6559;;;;
2020/06/28 01:21:28;;;;;;;6.3;3.4;;;;;;;16.02;89.49219;939.6398;;;;
2020/06/28 01:23:53;;;;;;;4.8;3.2;;;;;;;15.95;89.67578;939.7061;;;;
2020/06/28 01:26:18;;;;;;;5.8;3.5;;;;;;;15.92;90.08594;939.675;;;;
2020/06/28 01:28:44;;;;;;;6.1;3.9;;;;;;;15.79;90.50879;939.7039;;;;
2020/06/28 01:31:09;;;;;;;6.8;4.1;;;;;;;15.66;91.24512;939.7089;;;;
2020/06/28 01:33:37;;;;;;;7.3;4.3;;;;;;;15.67;90.92383;939.7178;;;;
2020/06/28 01:36:02;;;;;;;6.2;4.3;;;;;;;15.64;91.04492;939.6553;;;;
2020/06/28 01:38:27;;;;;;;6.7;4.5;;;;;;;15.76;90.63086;939.6632;;;;
2020/06/28 01:40:53;;;;;;;6.4;4.3;;;;;;;15.71;90.6543;939.6957;;;;
2020/06/28 01:43:18;;;;;;;7.3;4.5;;;;;;;15.55;91.47559;939.6362;;;;
2020/06/28 01:45:44;;;;;;;5.8;4.5;;;;;;;15.38;92.49023;939.7053;;;;
2020/06/28 01:48:12;;;;;;;6.2;4.5;;;;;;;15.45;92.2627;939.6578;;;;
2020/06/28 01:50:37;;;;;;;6.3;4.4;;;;;;;15.23;92.97852;939.7255;;;;
2020/06/28 01:53:03;;;;;;;4.9;4.1;;;;;;;15.22;94.01563;939.7321;;;;
2020/06/28 01:55:28;;;;;;;7;4.3;;;;;;;15.24;93.73242;939.7687;;;;
2020/06/28 01:57:54;;;;;;;5.3;3.4;;;;;;;15.3;92.69434;939.7234;;;;
2020/06/28 02:00:19;;;;;;;4.8;3.7;;;;;;;15.25;92.64746;939.6981;;;;
2020/06/28 02:02:48;;;;;;;5.5;3.3;;;;;;;15.25;92.2666;939.6147;;;;
2020/06/28 02:05:13;;;;;;;4.8;3.2;;;;;;;15.26;91.7168;939.6451;;;;
2020/06/28 02:07:43;;;;;;;3.5;3.2;;;;;;;15.3;91.0293;939.685;;;;
2020/06/28 02:10:11;;;;;;;4.5;3.3;;;;;;;15.36;91.16016;939.6982;;;;
2020/06/28 02:12:36;;;;;;;5;3.6;;;;;;;15.53;90.69727;939.7511;;;;
2020/06/28 02:15:04;;;;;;;4.8;4;;;;;;;15.4;91.34082;939.7863;;;;
2020/06/28 02:17:29;;;;;;;6.6;4.2;;;;;;;15.43;91.50781;939.7245;;;;
2020/06/28 02:19:54;;;;;;;7.1;3.9;;;;;;;15.53;90.75684;939.7455;;;;
2020/06/28 02:22:19;;;;;;;5.2;4;;;;;;;15.62;90.02344;939.7076;;;;
2020/06/28 02:24:46;;;;;;;5.2;4.1;;;;;;;15.49;90.32031;939.7032;;;;
2020/06/28 02:27:11;;;;;;;6.3;4.1;;;;;;;15.48;90.60742;939.7145;;;;
2020/06/28 02:29:37;;;;;;;5.4;3.9;;;;;;;15.35;90.97363;939.7039;;;;
2020/06/28 02:32:12;;;;;;;6.9;4.1;;;;;;;15.28;91.73242;939.6939;;;;
2020/06/28 02:34:37;;;;;;;6.2;4.2;;;;;;;15.29;91.28418;939.6858;;;;
2020/06/28 02:37:02;;;;;;;5.8;3.9;;;;;;;15.38;91.05859;939.6749;;;;
2020/06/28 02:39:27;;;;;;;5.5;4.2;;;;;;;15.37;90.87305;939.6243;;;;
2020/06/28 02:41:53;;;;;;;6.2;3.9;;;;;;;15.32;90.95508;939.5901;;;;
2020/06/28 02:44:18;;;;;;;4.8;3.9;;;;;;;15.31;90.9873;939.6376;;;;
2020/06/28 02:46:44;;;;;;;6.1;4;;;;;;;15.1;91.88867;939.5608;;;;
2020/06/28 02:49:09;;;;;;;4.7;3.2;;;;;;;15.19;91.77051;939.5698;;;;
2020/06/28 02:51:36;;;;;;;5.1;3.7;;;;;;;15.16;91.11719;939.509;;;;
2020/06/28 02:54:01;;;;;;;6.8;3.7;;;;;;;15.2;90.6875;939.4903;;;;
2020/06/28 02:56:29;;;;;;;5.2;3.7;;;;;;;15.37;90.43457;939.4182;;;;
2020/06/28 02:58:55;;;;;;;5.5;3.7;;;;;;;15.29;90.03516;939.4773;;;;
2020/06/28 03:01:22;;;;;;;4.9;3.1;;;;;;;15.12;90.33594;939.5012;;;;
2020/06/28 03:03:47;;;;;;;5.4;2.9;;;;;;;15.24;89.87598;939.4776;;;;
2020/06/28 03:06:13;;;;;;;5.7;2.8;;;;;;;15.28;89.55078;939.4981;;;;
2020/06/28 03:08:39;;;;;;;5.6;3.2;;;;;;;15.3;89.84082;939.4869;;;;
2020/06/28 03:11:04;;;;;;;4.8;3.4;;;;;;;15.48;89.16406;939.5323;;;;
2020/06/28 03:13:29;;;;;;;4.3;3.4;;;;;;;15.56;88.96094;939.5405;;;;
2020/06/28 03:15:57;;;;;;;3.5;3.2;;;;;;;15.55;89.31738;939.4989;;;;
2020/06/28 03:18:22;;;;;;;4.1;3.3;;;;;;;15.46;88.96191;939.5935;;;;
2020/06/28 03:20:49;;;;;;;4.6;3.3;;;;;;;15.41;90.06152;939.5655;;;;
2020/06/28 03:23:14;;;;;;;3.8;3.3;;;;;;;15.27;90.20605;939.5633;;;;
2020/06/28 03:25:42;;;;;;;4.3;3.2;;;;;;;15.24;89.49707;939.5795;;;;
2020/06/28 03:28:07;;;;;;;5.3;4;;;;;;;15.12;90.58984;939.5511;;;;
2020/06/28 03:30:39;;;;;;;4.4;3;;;;;;;15.04;90.37695;939.5499;;;;
2020/06/28 03:33:04;;;;;;;6.5;4.2;;;;;;;15.1;90.75781;939.5696;;;;
2020/06/28 03:35:29;;;;;;;6.2;4.7;;;;;;;15.22;90.25293;939.5089;;;;
2020/06/28 03:37:56;;;;;;;6.6;4;;;;;;;15.19;90.08594;939.5145;;;;
2020/06/28 03:40:21;;;;;;;7.4;3.3;;;;;;;15.06;89.5293;939.4752;;;;
2020/06/28 03:42:48;;;;;;;4.9;4;;;;;;;15.1;89.96191;939.4557;;;;
2020/06/28 03:45:13;;;;;;;4.9;4.1;;;;;;;14.9;90.9834;939.3667;;;;
2020/06/28 03:47:40;;;;;;;5.2;3.5;;;;;;;15.12;90.02441;939.2976;;;;
2020/06/28 03:50:05;;;;;;;5;3.6;;;;;;;15.16;89.54785;939.3951;;;;
2020/06/28 03:52:31;;;;;;;4.8;3.5;;;;;;;15.27;89.17773;939.3875;;;;
2020/06/28 03:54:56;;;;;;;4.4;3.3;;;;;;;15.36;88.58398;939.4278;;;;
2020/06/28 03:57:23;;;;;;;3.7;2.9;;;;;;;15.48;87.73047;939.432;;;;
2020/06/28 03:59:48;;;;;;;4.3;2.8;;;;;;;15.22;87.04492;939.4111;;;;
2020/06/28 04:02:30;;;;;;;4;2.8;;;;;;;15.27;86.83594;939.3658;;;;
2020/06/28 04:04:55;;;;;;;6.1;2.6;;;;;;;15.24;86.8418;939.4583;;;;
2020/06/28 04:07:21;;;;;;;6.9;3;;;;;;;15.32;87.52637;939.3936;;;;
2020/06/28 04:09:46;;;;;;;5.3;3;;;;;;;15.34;87.10449;939.4689;;;;
2020/06/28 04:12:13;;;;;;;6.7;3.9;;;;;;;15.21;89.07422;939.5392;;;;
2020/06/28 04:14:38;;;;;;;5.1;3.5;;;;;;;15.23;89.05469;939.5442;;;;
2020/06/28 04:17:06;;;;;;;5.4;3.1;;;;;;;15.2;88.25098;939.4808;;;;
2020/06/28 04:19:31;;;;;;;4;3.3;;;;;;;15;89.5625;939.4391;;;;
2020/06/28 04:21:59;;;;;;;5.5;4.1;;;;;;;14.88;90.8877;939.4847;;;;
2020/06/28 04:24:24;;;;;;;7;4.3;;;;;;;15.02;90.5;939.5403;;;;
2020/06/28 04:26:54;;;;;;;4.4;4;;;;;;;15.14;90.26074;939.5003;;;;
2020/06/28 04:29:18;;;;;;;7.6;3.6;;;;;;;15.09;90.3291;939.4598;;;;
2020/06/28 04:31:44;;;;;;;4.9;4;;;;;;;15.06;90.56543;939.4407;;;;
2020/06/28 04:34:14;;;;;;;5.3;4;;;;;;;14.97;90.98535;939.4658;;;;
2020/06/28 04:36:39;;;;;;;4.3;3.4;;;;;;;15.05;90.10254;939.5081;;;;
2020/06/28 04:39:07;;;;;;;5.6;3.6;;;;;;;15.05;89.44434;939.5306;;;;
2020/06/28 04:41:36;;;;;;;4.1;3.1;;;;;;;15.03;89.42969;939.4658;;;;
2020/06/28 04:44:01;;;;;;;7.3;3.2;;;;;;;15.05;90.23145;939.4937;;;;
2020/06/28 04:46:29;;;;;;;5.2;3.3;;;;;;;15.23;89.91797;939.4536;;;;
2020/06/28 04:48:54;;;;;;;4.8;3.3;;;;;;;15.49;89.11914;939.4319;;;;
2020/06/28 04:51:19;;;;;;;4.4;3.1;;;;;;;15.52;88.16797;939.4228;;;;
2020/06/28 04:53:44;;;;;;;6.4;3.9;;;;;;;15.44;88.73926;939.3875;;;;
2020/06/28 04:56:10;;;;;;;4.4;3.6;;;;;;;15.46;88.61523;939.3102;;;;
2020/06/28 04:58:36;;;;;;;7;3.4;;;;;;;15.29;89.47168;939.2887;;;;
2020/06/28 05:01:03;;;;;;;3.9;3.2;;;;;;;15.45;88.9834;939.2935;;;;
2020/06/28 05:03:28;;;;;;;4.1;3.2;;;;;;;15.67;88.61328;939.2682;;;;
2020/06/28 05:05:53;;;;;;;3.6;2.4;;;;;;;16.39;87.04688;939.2217;;;;
2020/06/28 05:08:18;;;;;;;5.1;2.2;;;;;;;17.66;82.0293;939.2009;;;;
2020/06/28 05:10:48;;;;;;;4;2.3;;;;;;;18.94;76.53027;939.2422;;;;
2020/06/28 05:13:13;;;;;;;4.5;1.9;;;;;;;19.85;70.25977;939.1382;;;;
2020/06/28 05:15:42;;;;;;;2.5;2;;;;;;;20.38;69.06152;939.1266;;;;
2020/06/28 05:18:10;;;;;;;4.2;1.9;;;;;;;20.6;66.60547;939.1439;;;;
2020/06/28 05:20:35;;;;;;;4;1.7;;;;;;;20.94;64.57617;939.0344;;;;
2020/06/28 05:23:02;;;;;;;2.5;1.5;;;;;;;21.11;63.96973;939.1186;;;;
2020/06/28 05:25:27;;;;;;;2.7;1.4;;;;;;;21.78;63.44531;939.1542;;;;
2020/06/28 05:27:54;;;;;;;3.7;1.5;;;;;;;22.53;60.19727;939.1538;;;;
2020/06/28 05:30:19;;;;;;;3.8;1.5;;;;;;;22.89;58.44824;939.0825;;;;
2020/06/28 05:32:48;;;;;;;2.8;1.5;;;;;;;23.28;57.32422;939.1155;;;;
2020/06/28 05:35:12;;;;;;;3.5;1.6;;;;;;;23.33;58.04883;939.128;;;;
2020/06/28 05:37:39;;;;;;;3.3;1.4;;;;;;;23.83;55.72363;939.0975;;;;
2020/06/28 05:40:04;;;;;;;5.1;1.5;;;;;;;24.62;54.59668;939.0392;;;;
2020/06/28 05:42:29;;;;;;;2.4;1.4;;;;;;;25.07;51.86719;939.0505;;;;
2020/06/28 05:44:54;;;;;;;2.2;1.6;;;;;;;24.67;52.66992;939.06;;;;
2020/06/28 05:47:19;;;;;;;3.2;1.7;;;;;;;24.04;57.61133;939.0281;;;;
2020/06/28 05:49:45;;;;;;;5.4;1.8;;;;;;;24.91;53.60547;938.9683;;;;
2020/06/28 05:52:10;;;;;;;2.6;1.5;;;;;;;25.27;52.26758;939.0253;;;;
2020/06/28 05:54:36;;;;;;;5.1;1.5;;;;;;;25.75;49.74805;938.9219;;;;
2020/06/28 05:57:01;;;;;;;2.5;1.8;;;;;;;26.49;49.43945;938.9379;;;;
2020/06/28 05:59:31;;;;;;;2.8;1.4;;;;;;;26.47;48.7373;938.9058;;;;
2020/06/28 06:02:00;;;;;;;2.2;1.3;;;;;;;25.4;50.60645;938.8871;;;;
2020/06/28 06:04:25;;;;;;;4.3;2;;;;;;;25.9;50.32031;938.9426;;;;
2020/06/28 06:06:52;;;;;;;2.4;1.4;;;;;;;26.32;48.60352;938.9551;;;;
2020/06/28 06:09:17;;;;;;;1.9;1.5;;;;;;;26.09;49.86816;938.8954;;;;
2020/06/28 06:11:45;;;;;;;5.3;1.5;;;;;;;26.92;48.52539;938.8903;;;;
2020/06/28 06:14:10;;;;;;;2.9;1.5;;;;;;;27.12;47.62305;938.8791;;;;
2020/06/28 06:16:37;;;;;;;3.3;1.6;;;;;;;27.51;47.10742;938.9371;;;;
2020/06/28 06:19:02;;;;;;;3.6;1.8;;;;;;;28;49.19043;938.947;;;;
2020/06/28 06:21:28;;;;;;;2.9;1.5;;;;;;;26.67;48.02539;938.88;;;;
2020/06/28 06:23:53;;;;;;;3.8;1.8;;;;;;;27.45;47.99023;938.9333;;;;
2020/06/28 06:26:19;;;;;;;3.4;1.9;;;;;;;26.77;48.50879;938.9673;;;;
2020/06/28 06:28:44;;;;;;;4.1;2;;;;;;;27.02;49.72266;938.9317;;;;
2020/06/28 06:31:09;;;;;;;3.3;2;;;;;;;28.02;46.625;938.9216;;;;
2020/06/28 06:33:38;;;;;;;3.9;2.1;;;;;;;28.29;46.54688;938.932;;;;
2020/06/28 06:36:07;;;;;;;3.2;1.5;;;;;;;28.98;42.92676;938.9144;;;;
2020/06/28 06:38:32;;;;;;;3.7;1.4;;;;;;;29.9;44.54297;938.8447;;;;
2020/06/28 06:40:59;;;;;;;1.8;1.3;;;;;;;30.73;40.32227;938.8962;;;;
2020/06/28 06:43:24;;;;;;;2.3;1.2;;;;;;;30.72;42.26855;938.8851;;;;
2020/06/28 06:45:51;;;;;;;3.7;1.4;;;;;;;31.13;41.94922;938.9309;;;;
2020/06/28 06:48:18;;;;;;;6;1.6;;;;;;;31.46;38.10059;938.8776;;;;
2020/06/28 06:50:44;;;;;;;4.1;1.4;;;;;;;31.79;39.16992;938.9434;;;;
2020/06/28 06:53:13;;;;;;;2.9;1.6;;;;;;;31.78;38.83398;938.8979;;;;
2020/06/28 06:55:43;;;;;;;3.4;1.7;;;;;;;31.73;39.33301;938.9171;;;;
2020/06/28 06:58:11;;;;;;;2.3;1.2;;;;;;;31.48;39.80176;938.8745;;;;
2020/06/28 07:00:37;;;;;;;3.8;1.4;;;;;;;32.28;38.55371;938.8286;;;;
2020/06/28 07:03:04;;;;;;;3.2;1.4;;;;;;;32.55;38.52832;938.8878;;;;
2020/06/28 07:05:30;;;;;;;3.2;1.3;;;;;;;33.22;35.97656;938.9088;;;;
2020/06/28 07:07:57;;;;;;;4;1.6;;;;;;;33.66;34.95313;938.8226;;;;
2020/06/28 07:10:22;;;;;;;2.1;1.5;;;;;;;32.36;34.72168;938.8884;;;;
2020/06/28 07:12:47;;;;;;;3.4;1.5;;;;;;;31.78;37.33691;938.924;;;;
2020/06/28 07:15:12;;;;;;;3.2;1.6;;;;;;;31.58;39.69043;938.866;;;;
2020/06/28 07:17:38;;;;;;;3.3;1.8;;;;;;;32.25;40.3125;938.8326;;;;
2020/06/28 07:20:03;;;;;;;4.5;1.6;;;;;;;32.49;36.02832;938.8571;;;;
2020/06/28 07:22:28;;;;;;;3.2;1.5;;;;;;;33.48;37.05664;938.8045;;;;
2020/06/28 07:24:55;;;;;;;3.7;1.5;;;;;;;34.18;37.0166;938.8123;;;;
2020/06/28 07:27:21;;;;;;;2.6;1.6;;;;;;;33.19;37.76563;938.8387;;;;
2020/06/28 07:29:46;;;;;;;3.1;1.6;;;;;;;34;36.01465;938.805;;;;
2020/06/28 07:32:15;;;;;;;3.7;1.6;;;;;;;34.22;34.7793;938.8005;;;;
2020/06/28 07:34:40;;;;;;;2.8;1.4;;;;;;;33.98;35.96582;938.803;;;;
2020/06/28 07:37:05;;;;;;;3;1.6;;;;;;;33.95;34.44629;938.7744;;;;
2020/06/28 07:39:32;;;;;;;5.3;1.6;;;;;;;34.22;37.17578;938.7509;;;;
2020/06/28 07:41:57;;;;;;;3.2;1.6;;;;;;;34.49;35.65527;938.7305;;;;
2020/06/28 07:44:24;;;;;;;3.6;1.6;;;;;;;34.61;35.61719;938.738;;;;
2020/06/28 07:46:49;;;;;;;4.3;1.5;;;;;;;35.48;30.96289;938.7449;;;;
2020/06/28 07:49:17;;;;;;;2.5;1.6;;;;;;;34.68;31.92188;938.6462;;;;
2020/06/28 07:51:42;;;;;;;2.4;1.5;;;;;;;34.56;33.70801;938.6473;;;;
2020/06/28 07:54:07;;;;;;;4.1;1.7;;;;;;;34.75;33.96484;938.5658;;;;
2020/06/28 07:56:32;;;;;;;3.5;1.5;;;;;;;34.52;34.27246;938.5195;;;;
2020/06/28 07:58:59;;;;;;;2.2;1.4;;;;;;;34.38;33.79102;938.5555;;;;
2020/06/28 08:01:24;;;;;;;2.1;1.5;;;;;;;33.96;34.49512;938.5928;;;;
2020/06/28 08:03:52;;;;;;;2.4;1.7;;;;;;;34.44;38.33887;938.5189;;;;
2020/06/28 08:06:17;;;;;;;2.7;1.7;;;;;;;33.53;36.39844;938.5164;;;;
2020/06/28 08:08:42;;;;;;;2.2;1.7;;;;;;;35.05;32.51465;938.5557;;;;
2020/06/28 08:11:07;;;;;;;2.5;1.5;;;;;;;33.92;39.91992;938.408;;;;
2020/06/28 08:13:34;;;;;;;6.2;1.8;;;;;;;35.23;33.05859;938.4647;;;;
2020/06/28 08:15:59;;;;;;;3.1;1.5;;;;;;;35.39;31.59668;938.424;;;;
2020/06/28 08:18:27;;;;;;;2.8;1.5;;;;;;;35.31;32.25488;938.4673;;;;
2020/06/28 08:20:53;;;;;;;10.7;1.9;;;;;;;35.91;32.64844;938.4621;;;;
2020/06/28 08:23:19;;;;;;;2.3;1.6;;;;;;;36.83;32.13281;938.4219;;;;
2020/06/28 08:25:44;;;;;;;2.3;1.5;;;;;;;37.06;31.49414;938.4116;;;;
2020/06/28 08:28:09;;;;;;;2.5;1.5;;;;;;;37.22;28.55957;938.3954;;;;
2020/06/28 08:30:34;;;;;;;2.7;1.5;;;;;;;37.12;30.18945;938.4208;;;;
2020/06/28 08:33:02;;;;;;;2.7;1.5;;;;;;;36.7;31.2998;938.382;;;;
2020/06/28 08:35:28;;;;;;;2;1.4;;;;;;;35.18;33.99609;938.4504;;;;
2020/06/28 08:37:55;;;;;;;2.5;1.5;;;;;;;35.06;34.57813;938.4286;;;;
2020/06/28 08:40:20;;;;;;;3.3;1.8;;;;;;;34.45;35.9541;938.4142;;;;
2020/06/28 08:42:46;;;;;;;4;1.8;;;;;;;33.34;39.04004;938.4188;;;;
2020/06/28 08:45:13;;;;;;;2.5;1.5;;;;;;;33.49;34.30273;938.382;;;;
2020/06/28 08:47:38;;;;;;;2.5;1.7;;;;;;;35.51;31.79883;938.4179;;;;
2020/06/28 08:50:04;;;;;;;3.1;1.5;;;;;;;34.91;36.0752;938.4089;;;;
2020/06/28 08:52:29;;;;;;;4.7;1.7;;;;;;;35.67;30.44434;938.3663;;;;
2020/06/28 08:54:54;;;;;;;4.1;1.6;;;;;;;35.42;32.49219;938.3915;;;;
2020/06/28 08:57:20;;;;;;;3.4;1.7;;;;;;;34.49;32.35449;938.4141;;;;
2020/06/28 08:59:45;;;;;;;3;1.5;;;;;;;35.26;33.29004;938.374;;;;
2020/06/28 09:02:10;;;;;;;3.6;1.5;;;;;;;33.69;36.08594;938.3884;;;;
2020/06/28 09:04:37;;;;;;;4;1.8;;;;;;;34.28;37.02441;938.3317;;;;
2020/06/28 09:07:02;;;;;;;5.3;1.7;;;;;;;33.49;39.05273;938.3631;;;;
2020/06/28 09:09:30;;;;;;;2.4;1.7;;;;;;;33.44;36.88477;938.3503;;;;
2020/06/28 09:11:55;;;;;;;2.9;1.6;;;;;;;33.6;37.08984;938.3244;;;;
2020/06/28 09:14:20;;;;;;;5.8;1.5;;;;;;;33.8;34.77148;938.2872;;;;
2020/06/28 09:16:45;;;;;;;3;1.7;;;;;;;32.58;42.0459;938.3516;;;;
2020/06/28 09:19:11;;;;;;;4.1;1.7;;;;;;;32.29;41.16797;938.3353;;;;
2020/06/28 09:21:36;;;;;;;3;1.5;;;;;;;32.77;37.98242;938.2848;;;;
2020/06/28 09:24:03;;;;;;;2.8;1.4;;;;;;;32.61;38.25684;938.2986;;;;
2020/06/28 09:26:28;;;;;;;2.9;1.6;;;;;;;32.57;40.4375;938.2803;;;;
2020/06/28 09:29:02;;;;;;;2.8;1.5;;;;;;;32.66;38.58496;938.2499;;;;
2020/06/28 09:31:28;;;;;;;2.4;1.7;;;;;;;31.7;38.73145;938.224;;;;
2020/06/28 09:33:53;;;;;;;2.4;1.5;;;;;;;31.6;41.88379;938.2189;;;;
2020/06/28 09:36:18;;;;;;;3.1;1.7;;;;;;;31.75;39.81445;938.2079;;;;
2020/06/28 09:38:44;;;;;;;4.6;1.8;;;;;;;31.75;44.68945;938.2502;;;;
2020/06/28 09:41:08;;;;;;;4.8;2;;;;;;;31.98;40.76855;938.1747;;;;
2020/06/28 09:43:34;;;;;;;3.9;1.8;;;;;;;32.17;42.33203;938.1473;;;;
2020/06/28 09:45:59;;;;;;;2.8;1.7;;;;;;;32.2;42.69434;938.1065;;;;
2020/06/28 09:48:26;;;;;;;2.9;1.7;;;;;;;32.46;40.31934;938.152;;;;
2020/06/28 09:50:51;;;;;;;2.6;2;;;;;;;32.32;39.2998;938.0956;;;;
2020/06/28 09:53:17;;;;;;;3.4;1.8;;;;;;;32.28;38.39746;938.0944;;;;
2020/06/28 09:55:42;;;;;;;2.8;1.7;;;;;;;32.4;41.13086;938.1351;;;;
2020/06/28 09:58:07;;;;;;;3.9;1.9;;;;;;;32.5;42.2793;938.1326;;;;
2020/06/28 10:00:33;;;;;;;2.1;1.7;;;;;;;32.19;40.51172;938.0881;;;;
2020/06/28 10:02:58;;;;;;;2.8;1.7;;;;;;;31.35;40.80762;938.0984;;;;
2020/06/28 10:05:24;;;;;;;3.9;2.1;;;;;;;30.53;42.50195;938.0236;;;;
2020/06/28 10:07:49;;;;;;;4.5;2.1;;;;;;;30.34;44.95605;938.067;;;;
2020/06/28 10:10:15;;;;;;;2.7;2;;;;;;;30.43;46.37402;937.9734;;;;
2020/06/28 10:12:40;;;;;;;4.8;2.5;;;;;;;30.18;46.44434;937.9914;;;;
2020/06/28 10:15:07;;;;;;;4;2.3;;;;;;;30.57;45.73145;938.0931;;;;
2020/06/28 10:17:32;;;;;;;4.6;3.1;;;;;;;30.6;44.58789;938.1252;;;;
2020/06/28 10:19:57;;;;;;;3.4;2.6;;;;;;;30.48;43.25;938.077;;;;
2020/06/28 10:22:22;;;;;;;6.5;2.9;;;;;;;30.29;44.27051;938.0814;;;;
2020/06/28 10:24:48;;;;;;;4.5;2.8;;;;;;;30.36;46.60645;938.1314;;;;
2020/06/28 10:27:13;;;;;;;7.1;2.8;;;;;;;30.46;45.22949;938.0876;;;;
2020/06/28 10:29:38;;;;;;;7.2;2.6;;;;;;;30.52;44.97461;938.1242;;;;
2020/06/28 10:32:03;;;;;;;3.7;2.3;;;;;;;30.62;45.34277;938.1415;;;;
2020/06/28 10:34:29;;;;;;;4.3;2.2;;;;;;;30.88;43.82617;938.1303;;;;
2020/06/28 10:36:54;;;;;;;3.3;2.1;;;;;;;30.85;43.24902;938.106;;;;
2020/06/28 10:39:19;;;;;;;4.6;2;;;;;;;30.93;41.53516;938.09;;;;
2020/06/28 10:41:44;;;;;;;4.4;2.1;;;;;;;30.65;43.48145;938.0467;;;;
2020/06/28 10:44:10;;;;;;;4.4;2.1;;;;;;;29.85;43.53516;938.1163;;;;
2020/06/28 10:46:35;;;;;;;4.4;2.2;;;;;;;29.47;43.54688;938.0709;;;;
2020/06/28 10:49:02;;;;;;;5.7;2.1;;;;;;;29.34;46.91699;938.0837;;;;
2020/06/28 10:51:27;;;;;;;5.1;2.1;;;;;;;29.35;45.00098;938.0322;;;;
2020/06/28 10:53:53;;;;;;;2.5;2;;;;;;;28.89;45.49023;938.0681;;;;
2020/06/28 10:56:18;;;;;;;2.8;1.9;;;;;;;28.51;46.26074;938.0542;;;;
2020/06/28 10:58:44;;;;;;;2.9;2;;;;;;;28.53;46.22656;938.0946;;;;
2020/06/28 11:01:09;;;;;;;5.2;2.2;;;;;;;28.36;47.90918;938.0419;;;;
2020/06/28 11:03:34;;;;;;;7.3;2.5;;;;;;;28.16;47.91211;937.9803;;;;
2020/06/28 11:06:03;;;;;;;3;2.3;;;;;;;28.23;49.12012;938.022;;;;
2020/06/28 11:08:27;;;;;;;3.4;2.2;;;;;;;28.98;49.71289;937.9731;;;;
2020/06/28 11:10:58;;;;;;;4.7;2;;;;;;;29.54;46.73633;937.9702;;;;
2020/06/28 11:13:23;;;;;;;3.3;2;;;;;;;29.61;43.63184;937.9675;;;;
2020/06/28 11:15:48;;;;;;;4.2;2.2;;;;;;;29.12;44.47656;937.9678;;;;
2020/06/28 11:18:15;;;;;;;4.1;2.3;;;;;;;28.95;45.80566;937.9164;;;;
2020/06/28 11:20:41;;;;;;;4.1;1.9;;;;;;;29.07;46.35352;937.887;;;;
2020/06/28 11:23:07;;;;;;;2.5;2.1;;;;;;;29.03;46.09961;937.8945;;;;
2020/06/28 11:25:33;;;;;;;4.3;2;;;;;;;28.83;47.01855;937.885;;;;
2020/06/28 11:27:57;;;;;;;4.4;2;;;;;;;29;47.2627;937.8373;;;;
2020/06/28 11:30:25;;;;;;;2.8;2.1;;;;;;;29.2;47.96289;937.8198;;;;
2020/06/28 11:32:50;;;;;;;4.9;2.1;;;;;;;29.39;46.13574;937.7491;;;;
2020/06/28 11:35:15;;;;;;;3.4;2.2;;;;;;;29.44;46.87988;937.7339;;;;
2020/06/28 11:37:40;;;;;;;6.4;2.2;;;;;;;29.15;44.09961;937.7358;;;;
2020/06/28 11:40:07;;;;;;;3.4;2.1;;;;;;;28.86;47.83203;937.7238;;;;
2020/06/28 11:42:32;;;;;;;3.9;2.2;;;;;;;28.62;48.16406;937.7374;;;;
2020/06/28 11:44:57;;;;;;;4.4;2.2;;;;;;;28.37;48.80176;937.6415;;;;
2020/06/28 11:47:22;;;;;;;3.4;2.2;;;;;;;28.76;48.36816;937.636;;;;
2020/06/28 11:49:50;;;;;;;3.4;2.2;;;;;;;29.23;48.12012;937.622;;;;
2020/06/28 11:52:15;;;;;;;2.8;2;;;;;;;29.6;46.20508;937.635;;;;
2020/06/28 11:54:41;;;;;;;3.3;2.1;;;;;;;29.93;48.625;937.6373;;;;
2020/06/28 11:57:06;;;;;;;4.3;2.1;;;;;;;30.24;44.83789;937.6642;;;;
2020/06/28 11:59:32;;;;;;;4;2.1;;;;;;;30.48;43.22559;937.5714;;;;
2020/06/28 12:01:57;;;;;;;2.9;2.1;;;;;;;30.77;44.43555;937.5323;;;;
2020/06/28 12:04:22;;;;;;;2.6;2.1;;;;;;;30.93;45.39648;937.5962;;;;
2020/06/28 12:06:47;;;;;;;7.4;2.3;;;;;;;31.01;44.18555;937.5611;;;;
2020/06/28 12:09:12;;;;;;;3.3;2;;;;;;;30.9;43.56543;937.5026;;;;
2020/06/28 12:11:37;;;;;;;3.7;2.4;;;;;;;30.76;44.13672;937.5097;;;;
2020/06/28 12:14:03;;;;;;;3.2;2;;;;;;;30.76;43.99316;937.4914;;;;
2020/06/28 12:16:28;;;;;;;4.9;2.3;;;;;;;30.84;44.02441;937.4816;;;;
2020/06/28 12:18:53;;;;;;;43.7;30.7;;;;;;;30.7;43.72559;937.4446;;;;
2020/06/28 12:21:18;;;;;;;14.5;9.1;;;;;;;30.56;45.13281;937.4375;;;;
2020/06/28 12:23:44;;;;;;;9;4.6;;;;;;;30.26;44.87695;937.4242;;;;
2020/06/28 12:26:09;;;;;;;8.5;6;;;;;;;30.02;44.82813;937.4475;;;;
2020/06/28 12:28:35;;;;;;;3.3;2.7;;;;;;;29.5;45.90918;937.4256;;;;
2020/06/28 12:31:00;;;;;;;4.4;3.3;;;;;;;29.22;45.68945;937.4406;;;;
2020/06/28 12:33:26;;;;;;;4.1;2.4;;;;;;;29.08;46.49805;937.3904;;;;
2020/06/28 12:35:51;;;;;;;3.8;2.4;;;;;;;28.81;47.19531;937.3043;;;;
2020/06/28 12:38:18;;;;;;;3.1;2.4;;;;;;;28.69;47.07617;937.3247;;;;
2020/06/28 12:40:43;;;;;;;5.7;2.8;;;;;;;28.56;48.40723;937.2595;;;;
2020/06/28 12:43:09;;;;;;;3.3;2.5;;;;;;;28.56;48.7168;937.293;;;;
2020/06/28 12:45:34;;;;;;;6.5;2.6;;;;;;;28.48;48.04199;937.2522;;;;
2020/06/28 12:48:00;;;;;;;4.7;2.7;;;;;;;28.17;49.44531;937.305;;;;
2020/06/28 12:50:25;;;;;;;6.8;2.5;;;;;;;28.16;50.39551;937.3086;;;;
2020/06/28 12:52:52;;;;;;;3.8;2.6;;;;;;;28.21;49.3916;937.2759;;;;
2020/06/28 12:55:17;;;;;;;3.6;2.5;;;;;;;28.18;50.40918;937.3338;;;;
2020/06/28 12:57:42;;;;;;;4.3;2.7;;;;;;;28.29;50.70703;937.3663;;;;
2020/06/28 13:00:07;;;;;;;5.5;3.6;;;;;;;27.8;51.11523;937.3714;;;;
2020/06/28 13:02:34;;;;;;;16.1;12.4;;;;;;;27.77;50.71973;937.4073;;;;
2020/06/28 13:04:59;;;;;;;16.1;12.7;;;;;;;27.42;51.57031;937.4464;;;;
2020/06/28 13:07:26;;;;;;;7.9;5.5;;;;;;;27.77;51.53809;937.4528;;;;
2020/06/28 13:09:51;;;;;;;7.6;4.9;;;;;;;28.13;51.62695;937.4695;;;;
2020/06/28 13:12:17;;;;;;;9.3;7.8;;;;;;;28.45;49.5;937.4992;;;;
2020/06/28 13:14:42;;;;;;;6.1;4;;;;;;;28.44;50.99707;937.473;;;;
2020/06/28 13:17:08;;;;;;;3;2.4;;;;;;;28.42;51.3877;937.4349;;;;
2020/06/28 13:19:33;;;;;;;7.4;3.7;;;;;;;28.71;51.75293;937.4811;;;;
2020/06/28 13:22:00;;;;;;;4.5;2.5;;;;;;;28.9;49.7998;937.4178;;;;
2020/06/28 13:24:25;;;;;;;3.5;2.4;;;;;;;29.02;50.71875;937.4324;;;;
2020/06/28 13:26:51;;;;;;;5;2.4;;;;;;;29.31;50.61914;937.3875;;;;
2020/06/28 13:29:16;;;;;;;3.4;2.4;;;;;;;29.45;49.70605;937.3918;;;;
2020/06/28 13:31:43;;;;;;;4;2.7;;;;;;;29.41;50.6543;937.3667;;;;
2020/06/28 13:34:08;;;;;;;5.1;2.6;;;;;;;29.59;49.03027;937.3447;;;;
2020/06/28 13:36:35;;;;;;;4.3;2.4;;;;;;;30.02;48.07422;937.3709;;;;
2020/06/28 13:39:00;;;;;;;3;2.3;;;;;;;30.19;46.38477;937.3906;;;;
2020/06/28 13:41:26;;;;;;;4;2.5;;;;;;;30.44;45.95703;937.3491;;;;
2020/06/28 13:43:51;;;;;;;3.6;2.4;;;;;;;30.42;46.5166;937.29;;;;
2020/06/28 13:46:19;;;;;;;5.4;2.4;;;;;;;30.41;45.91797;937.3318;;;;
2020/06/28 13:48:45;;;;;;;3.6;2.3;;;;;;;30.22;45.31348;937.3675;;;;
2020/06/28 13:51:10;;;;;;;3.4;2.4;;;;;;;30.13;46.34277;937.3363;;;;
2020/06/28 13:53:35;;;;;;;4.3;2.4;;;;;;;29.97;46.35059;937.2889;;;;
2020/06/28 13:56:04;;;;;;;5.1;2.6;;;;;;;30.04;48.19531;937.2626;;;;
2020/06/28 13:58:29;;;;;;;4.4;2.4;;;;;;;30.23;47.0459;937.257;;;;
2020/06/28 14:00:55;;;;;;;3.6;2.3;;;;;;;30.28;46.20313;937.1996;;;;
2020/06/28 14:03:20;;;;;;;4.9;2.3;;;;;;;30.34;45.20605;937.1021;;;;
2020/06/28 14:05:49;;;;;;;3;2.2;;;;;;;30.57;46.44922;937.1367;;;;
2020/06/28 14:08:14;;;;;;;2.7;2.3;;;;;;;30.78;45.66992;937.1619;;;;
2020/06/28 14:10:39;;;;;;;2.5;2.2;;;;;;;30.81;45.03809;937.0966;;;;
2020/06/28 14:13:05;;;;;;;3.5;2.3;;;;;;;30.88;44.2334;937.1813;;;;
2020/06/28 14:15:30;;;;;;;3.2;2.3;;;;;;;30.86;44.33789;937.2001;;;;
2020/06/28 14:17:55;;;;;;;3.2;2.3;;;;;;;30.75;47.02832;937.1387;;;;